Time;durP1;ratioP1;P1;durP2;ratioP2;P2;SDS_P1;SDS_P2;PMS_P1;PMS_P2;Temp;Humidity;BMP_temperature;BMP_pressure;BME280_temperature;BME280_humidity;BME280_pressure;Samples;Min_cycle;Max_cycle;Signal;HPM_P1;HPM_P2
2020/12/29 00:00:27;;;;;;;16.70;14.27;;;3.40;99.90;;;;;;5075339;28;20174;-54
2020/12/29 00:02:53;;;;;;;16.30;13.40;;;3.40;99.90;;;;;;5074318;28;20167;-48
2020/12/29 00:05:18;;;;;;;24.20;15.20;;;3.40;99.90;;;;;;5075852;28;20163;-56
2020/12/29 00:07:53;;;;;;;17.13;14.13;;;3.30;99.90;;;;;;5074864;28;20666;-55
2020/12/29 00:10:20;;;;;;;18.43;15.10;;;3.40;99.90;;;;;;5075092;28;20174;-49
2020/12/29 00:12:47;;;;;;;17.13;13.93;;;3.40;99.90;;;;;;5074838;28;20452;-51
2020/12/29 00:15:12;;;;;;;17.90;14.67;;;3.40;99.90;;;;;;5075038;28;20884;-57
2020/12/29 00:17:37;;;;;;;18.63;15.20;;;3.30;99.90;;;;;;5074698;28;20424;-49
2020/12/29 00:20:04;;;;;;;17.00;13.57;;;3.30;99.90;;;;;;5074602;28;20174;-53
2020/12/29 00:22:29;;;;;;;18.73;15.03;;;3.30;99.90;;;;;;5075338;28;20174;-52
2020/12/29 00:24:55;;;;;;;17.13;13.73;;;3.30;99.90;;;;;;5075358;28;20178;-49
2020/12/29 00:27:20;;;;;;;16.60;13.30;;;3.30;99.90;;;;;;5074623;28;20224;-51
2020/12/29 00:29:46;;;;;;;17.20;13.40;;;3.30;99.90;;;;;;5074536;28;20202;-56
2020/12/29 00:32:11;;;;;;;19.00;14.37;;;3.20;99.90;;;;;;5074399;28;20229;-57
2020/12/29 00:34:37;;;;;;;17.13;14.13;;;3.20;99.90;;;;;;5075461;28;20592;-53
2020/12/29 00:37:02;;;;;;;17.53;14.43;;;3.10;99.90;;;;;;5074707;28;20173;-52
2020/12/29 00:39:28;;;;;;;19.93;13.80;;;3.00;99.90;;;;;;5074796;28;20584;-54
2020/12/29 00:41:55;;;;;;;18.20;14.37;;;3.00;99.90;;;;;;5074812;28;20206;-57
2020/12/29 00:44:20;;;;;;;17.40;13.67;;;3.00;99.90;;;;;;5074310;28;20656;-54
2020/12/29 00:46:46;;;;;;;18.33;14.93;;;3.00;99.90;;;;;;5074144;28;20416;-57
2020/12/29 00:49:11;;;;;;;18.87;14.60;;;3.00;99.90;;;;;;5074409;28;20194;-50
2020/12/29 00:51:37;;;;;;;24.37;14.93;;;3.00;99.90;;;;;;5075276;28;20658;-51
2020/12/29 00:54:02;;;;;;;15.80;12.30;;;2.90;99.90;;;;;;5075018;28;20188;-49
2020/12/29 00:56:28;;;;;;;29.03;14.73;;;2.80;99.90;;;;;;5073693;28;20174;-55
2020/12/29 00:58:54;;;;;;;16.80;13.70;;;2.80;99.90;;;;;;5071465;28;20271;-57
2020/12/29 01:01:19;;;;;;;18.20;13.43;;;2.70;99.90;;;;;;5073743;28;20171;-49
2020/12/29 01:03:45;;;;;;;14.37;12.00;;;2.70;99.90;;;;;;5073892;28;20580;-57
2020/12/29 01:06:11;;;;;;;17.00;13.27;;;2.70;99.90;;;;;;5074688;28;20174;-57
2020/12/29 01:08:37;;;;;;;16.67;12.47;;;2.70;99.90;;;;;;5074278;28;20281;-53
2020/12/29 01:11:03;;;;;;;17.03;13.67;;;2.70;99.90;;;;;;5074580;28;20551;-57
2020/12/29 01:13:29;;;;;;;16.30;12.67;;;2.80;99.90;;;;;;5074478;28;20664;-51
2020/12/29 01:15:54;;;;;;;15.50;12.43;;;2.90;99.90;;;;;;5073221;28;20401;-57
2020/12/29 01:18:20;;;;;;;16.10;13.33;;;2.90;99.90;;;;;;5071382;28;20236;-52
2020/12/29 01:20:47;;;;;;;16.70;13.80;;;3.00;99.90;;;;;;5073649;28;20654;-51
2020/12/29 01:23:13;;;;;;;16.20;13.27;;;3.10;99.90;;;;;;5073909;28;20159;-56
2020/12/29 01:25:42;;;;;;;16.80;13.67;;;3.10;99.90;;;;;;5074360;28;21014;-55
2020/12/29 01:28:09;;;;;;;17.03;14.03;;;3.10;99.90;;;;;;5070000;28;20678;-53
2020/12/29 01:30:34;;;;;;;16.43;13.50;;;3.20;99.90;;;;;;5071392;28;20189;-56
2020/12/29 01:33:00;;;;;;;15.40;12.37;;;3.30;99.90;;;;;;5074326;28;20592;-57
2020/12/29 01:35:26;;;;;;;14.60;12.57;;;3.30;99.90;;;;;;5077426;28;20174;-51
2020/12/29 01:37:51;;;;;;;14.57;12.27;;;3.30;99.90;;;;;;5077520;28;20635;-53
2020/12/29 01:40:17;;;;;;;15.60;12.67;;;3.30;99.90;;;;;;5078792;28;20193;-53
2020/12/29 01:42:45;;;;;;;15.53;13.20;;;3.30;99.90;;;;;;5077979;28;20183;-55
2020/12/29 01:45:13;;;;;;;15.70;11.87;;;3.30;99.90;;;;;;5073902;28;20206;-53
2020/12/29 01:47:41;;;;;;;14.43;11.93;;;3.20;99.90;;;;;;5076427;28;21444;-52
2020/12/29 01:50:16;;;;;;;14.63;12.27;;;3.20;99.90;;;;;;5077730;28;20916;-56
2020/12/29 01:52:42;;;;;;;15.10;11.93;;;3.10;99.90;;;;;;5078414;28;20201;-50
2020/12/29 01:55:09;;;;;;;29.07;13.33;;;3.10;99.90;;;;;;5077895;28;20419;-53
2020/12/29 01:57:36;;;;;;;15.07;12.17;;;3.10;99.90;;;;;;5077610;28;20178;-57
2020/12/29 02:00:09;;;;;;;14.60;11.83;;;3.10;99.90;;;;;;5078486;28;20487;-57
2020/12/29 02:02:35;;;;;;;14.10;11.47;;;3.10;99.90;;;;;;5078284;28;20442;-55
2020/12/29 02:05:01;;;;;;;17.03;11.87;;;3.00;99.90;;;;;;5077305;28;20412;-54
2020/12/29 02:07:28;;;;;;;21.30;12.43;;;2.90;99.90;;;;;;5076913;28;20171;-54
2020/12/29 02:09:54;;;;;;;14.83;11.47;;;2.80;99.90;;;;;;5077386;28;20470;-53
2020/12/29 02:12:24;;;;;;;13.67;11.60;;;3.10;99.90;;;;;;5077454;28;20505;-55
2020/12/29 02:14:50;;;;;;;13.43;10.87;;;2.60;99.90;;;;;;5077796;28;20784;-57
2020/12/29 02:17:16;;;;;;;15.20;12.77;;;2.50;99.90;;;;;;5076537;28;20934;-54
2020/12/29 02:19:42;;;;;;;15.53;12.37;;;2.50;99.90;;;;;;5076784;28;20420;-49
2020/12/29 02:22:07;;;;;;;13.63;11.27;;;2.50;99.90;;;;;;5076797;28;20565;-53
2020/12/29 02:24:33;;;;;;;13.77;11.03;;;2.50;99.90;;;;;;5077320;28;20206;-52
2020/12/29 02:27:02;;;;;;;14.37;10.83;;;2.50;99.90;;;;;;5077802;28;20174;-55
2020/12/29 02:29:31;;;;;;;12.83;10.00;;;2.50;99.90;;;;;;5076894;28;20190;-54
2020/12/29 02:31:57;;;;;;;11.50;9.97;;;2.60;99.90;;;;;;5076453;28;20452;-55
2020/12/29 02:34:22;;;;;;;11.50;10.23;;;2.70;99.90;;;;;;5076632;28;20481;-51
2020/12/29 02:36:48;;;;;;;11.83;10.00;;;2.70;99.90;;;;;;5076955;28;20220;-50
2020/12/29 02:39:13;;;;;;;12.80;10.60;;;2.80;99.90;;;;;;5072653;28;20280;-57
2020/12/29 02:41:39;;;;;;;16.33;9.60;;;2.70;99.90;;;;;;5076049;28;20186;-51
2020/12/29 02:44:04;;;;;;;9.33;8.30;;;2.70;99.90;;;;;;5075757;28;20182;-52
2020/12/29 02:46:30;;;;;;;9.20;8.10;;;2.60;99.90;;;;;;5077416;28;20241;-56
2020/12/29 02:48:55;;;;;;;10.13;8.43;;;2.50;99.90;;;;;;5076323;28;20271;-56
2020/12/29 02:51:21;;;;;;;9.67;8.40;;;2.50;99.90;;;;;;5076906;28;20604;-52
2020/12/29 02:53:46;;;;;;;10.20;8.53;;;2.50;99.90;;;;;;5076752;28;20248;-54
2020/12/29 02:56:18;;;;;;;11.33;8.60;;;2.60;99.90;;;;;;5075471;28;20178;-57
2020/12/29 02:58:43;;;;;;;9.57;8.23;;;2.60;99.90;;;;;;5076301;28;20187;-51
2020/12/29 03:01:09;;;;;;;10.07;8.93;;;2.70;99.90;;;;;;5076999;28;20431;-49
2020/12/29 03:03:34;;;;;;;13.07;8.73;;;2.70;99.90;;;;;;5076923;28;20239;-54
2020/12/29 03:06:00;;;;;;;10.90;8.80;;;2.70;99.90;;;;;;5077464;28;20208;-54
2020/12/29 03:08:25;;;;;;;10.63;8.87;;;2.60;99.90;;;;;;5077127;28;20204;-52
2020/12/29 03:10:51;;;;;;;11.10;9.10;;;2.60;99.90;;;;;;5076874;28;20210;-52
2020/12/29 03:13:16;;;;;;;10.53;8.63;;;2.60;99.90;;;;;;5076057;28;20197;-56
2020/12/29 03:15:42;;;;;;;10.57;8.57;;;2.60;99.90;;;;;;5075921;28;20265;-52
2020/12/29 03:18:07;;;;;;;11.63;9.13;;;2.70;99.90;;;;;;5075745;28;20237;-52
2020/12/29 03:20:33;;;;;;;10.33;9.10;;;2.70;99.90;;;;;;5077533;28;20238;-55
2020/12/29 03:22:58;;;;;;;11.17;8.63;;;2.70;99.90;;;;;;5076420;28;20634;-55
2020/12/29 03:25:24;;;;;;;11.07;9.10;;;2.70;99.90;;;;;;5075765;28;20614;-49
2020/12/29 03:27:49;;;;;;;10.97;9.30;;;2.70;99.90;;;;;;5075468;28;20814;-52
2020/12/29 03:30:15;;;;;;;11.83;9.33;;;2.80;99.90;;;;;;5075819;28;20258;-56
2020/12/29 03:32:40;;;;;;;11.60;8.60;;;2.80;99.90;;;;;;5076103;28;20325;-57
2020/12/29 03:35:06;;;;;;;10.60;8.53;;;2.90;99.90;;;;;;5075966;28;20177;-54
2020/12/29 03:37:31;;;;;;;12.47;9.93;;;3.00;99.90;;;;;;5075627;28;20170;-49
2020/12/29 03:39:57;;;;;;;10.83;9.00;;;3.00;99.90;;;;;;5076653;28;20232;-55
2020/12/29 03:42:23;;;;;;;11.87;9.77;;;2.90;99.90;;;;;;5075334;28;20224;-49
2020/12/29 03:44:48;;;;;;;12.10;9.23;;;2.90;99.90;;;;;;5075575;28;20185;-52
2020/12/29 03:47:14;;;;;;;11.37;8.87;;;2.90;99.90;;;;;;5074880;28;20202;-57
2020/12/29 03:49:39;;;;;;;11.77;9.40;;;2.90;99.90;;;;;;5076240;28;20202;-52
2020/12/29 03:52:05;;;;;;;23.90;11.70;;;3.00;99.90;;;;;;5075022;28;20236;-55
2020/12/29 03:54:30;;;;;;;12.33;10.03;;;3.00;99.90;;;;;;5075236;28;20175;-57
2020/12/29 03:56:56;;;;;;;11.27;9.00;;;3.00;99.90;;;;;;5074154;28;20178;-56
2020/12/29 03:59:21;;;;;;;11.03;8.90;;;2.90;99.90;;;;;;5074878;28;20189;-50
2020/12/29 04:01:47;;;;;;;13.10;9.90;;;3.00;99.90;;;;;;5068627;28;20589;-52
2020/12/29 04:04:12;;;;;;;11.77;9.50;;;3.00;99.90;;;;;;5054878;28;20169;-52
2020/12/29 04:06:38;;;;;;;10.70;8.40;;;;;;;;;;5063681;28;20186;-50
2020/12/29 04:09:04;;;;;;;12.33;9.53;;;3.00;99.90;;;;;;5071842;28;20214;-55
2020/12/29 04:11:29;;;;;;;12.33;9.97;;;3.00;99.90;;;;;;5072969;28;20206;-55
2020/12/29 04:13:55;;;;;;;13.53;10.57;;;3.00;99.90;;;;;;5074081;28;20228;-53
2020/12/29 04:16:22;;;;;;;11.77;9.60;;;3.00;99.90;;;;;;5075645;28;20173;-55
2020/12/29 04:18:48;;;;;;;11.90;9.47;;;3.30;99.90;;;;;;5074208;28;20194;-50
2020/12/29 04:21:13;;;;;;;12.77;9.83;;;3.10;99.90;;;;;;5074682;28;20466;-49
2020/12/29 04:23:39;;;;;;;12.00;9.53;;;3.10;99.90;;;;;;5074949;28;20181;-52
2020/12/29 04:26:08;;;;;;;13.67;10.60;;;3.10;99.90;;;;;;5082539;28;20196;-55
2020/12/29 04:28:34;;;;;;;12.63;9.77;;;3.20;99.90;;;;;;5096542;28;20208;-53
2020/12/29 04:31:00;;;;;;;11.90;9.67;;;3.10;99.90;;;;;;5083057;28;20476;-50
2020/12/29 04:33:25;;;;;;;12.50;9.93;;;3.00;99.90;;;;;;5073407;28;20307;-53
2020/12/29 04:35:51;;;;;;;13.67;10.87;;;3.10;99.90;;;;;;5073628;28;20197;-50
2020/12/29 04:38:16;;;;;;;13.13;10.37;;;3.10;99.90;;;;;;5073849;28;20191;-50
2020/12/29 04:40:42;;;;;;;13.70;10.63;;;3.10;99.90;;;;;;5074013;28;20177;-49
2020/12/29 04:43:07;;;;;;;12.97;10.10;;;3.10;99.90;;;;;;5074154;28;20183;-55
2020/12/29 04:45:33;;;;;;;12.50;9.63;;;3.10;99.90;;;;;;5061583;28;20205;-56
2020/12/29 04:47:59;;;;;;;12.40;10.37;;;3.10;99.90;;;;;;5069451;28;20213;-49
2020/12/29 04:50:30;;;;;;;12.27;9.70;;;3.10;99.90;;;;;;5058112;28;20258;-57
2020/12/29 04:52:57;;;;;;;14.07;10.77;;;3.10;99.90;;;;;;5074295;28;20228;-53
2020/12/29 04:55:32;;;;;;;10.93;9.47;;;3.00;99.90;;;;;;5066214;28;20472;-54
2020/12/29 04:57:59;;;;;;;14.17;10.27;;;3.00;99.90;;;;;;5054115;28;20807;-52
2020/12/29 05:00:26;;;;;;;12.43;10.70;;;2.90;99.90;;;;;;5062482;28;20466;-51
2020/12/29 05:02:53;;;;;;;14.20;11.47;;;2.90;99.90;;;;;;5071138;28;20467;-51
2020/12/29 05:05:19;;;;;;;14.03;11.17;;;2.90;99.90;;;;;;5070152;28;20493;-49
2020/12/29 05:07:46;;;;;;;13.73;10.90;;;2.90;99.90;;;;;;5061544;28;20433;-51
2020/12/29 05:10:12;;;;;;;13.53;10.87;;;2.90;99.90;;;;;;5074050;28;20408;-56
2020/12/29 05:12:50;;;;;;;13.10;10.73;;;2.90;99.90;;;;;;5071415;28;20472;-57
2020/12/29 05:15:19;;;;;;;12.93;10.60;;;2.90;99.90;;;;;;5056496;28;20244;-55
2020/12/29 05:17:44;;;;;;;14.50;10.07;;;2.90;99.90;;;;;;5054186;28;20793;-53
2020/12/29 05:20:10;;;;;;;13.57;11.17;;;2.90;99.90;;;;;;5054014;28;20913;-51
2020/12/29 05:22:38;;;;;;;14.50;12.07;;;2.80;99.90;;;;;;5073667;28;20179;-50
2020/12/29 05:25:05;;;;;;;14.17;11.30;;;2.90;99.90;;;;;;5074132;28;20170;-52
2020/12/29 05:27:35;;;;;;;13.30;11.07;;;2.90;99.90;;;;;;5055389;28;20472;-57
2020/12/29 05:30:02;;;;;;;15.07;12.30;;;2.70;99.90;;;;;;5056540;28;20983;-55
2020/12/29 05:32:27;;;;;;;16.33;11.97;;;2.60;99.90;;;;;;5071805;28;20460;-55
2020/12/29 05:34:57;;;;;;;14.97;11.50;;;2.50;99.90;;;;;;5070188;28;20436;-55
2020/12/29 05:37:24;;;;;;;12.87;10.90;;;2.60;99.90;;;;;;5072384;28;20271;-57
2020/12/29 05:39:49;;;;;;;14.03;11.47;;;2.70;99.90;;;;;;5073225;28;20444;-51
2020/12/29 05:42:24;;;;;;;13.53;11.57;;;2.70;99.90;;;;;;5067689;28;20799;-52
2020/12/29 05:44:52;;;;;;;13.63;11.17;;;2.80;99.90;;;;;;5053010;28;20226;-50
2020/12/29 05:47:25;;;;;;;12.43;10.80;;;2.80;99.90;;;;;;5072546;28;20512;-54
2020/12/29 05:49:53;;;;;;;12.53;10.23;;;2.90;99.90;;;;;;5070526;28;20574;-53
2020/12/29 05:52:19;;;;;;;15.43;13.33;;;3.00;99.90;;;;;;5057644;28;20477;-53
2020/12/29 05:54:46;;;;;;;14.97;11.93;;;3.00;99.90;;;;;;5071015;28;20428;-51
2020/12/29 05:57:12;;;;;;;14.43;11.30;;;3.00;99.90;;;;;;5072416;28;20268;-54
2020/12/29 05:59:39;;;;;;;15.00;12.53;;;3.00;99.90;;;;;;5072365;28;20444;-54
2020/12/29 06:02:08;;;;;;;14.47;12.07;;;2.90;99.90;;;;;;5072004;28;20435;-54
2020/12/29 06:04:37;;;;;;;14.60;12.20;;;2.60;99.90;;;;;;5073958;28;20772;-53
2020/12/29 06:07:05;;;;;;;15.23;12.00;;;2.40;99.90;;;;;;5064311;28;20430;-49
2020/12/29 06:09:33;;;;;;;13.13;10.80;;;2.30;99.90;;;;;;5053350;28;20448;-51
2020/12/29 06:11:59;;;;;;;13.43;10.43;;;2.30;99.90;;;;;;5061099;28;20460;-53
2020/12/29 06:14:26;;;;;;;12.10;9.93;;;2.30;99.90;;;;;;5073486;28;20823;-52
2020/12/29 06:16:54;;;;;;;14.13;10.63;;;2.40;99.90;;;;;;5066229;28;20455;-52
2020/12/29 06:19:29;;;;;;;12.60;10.10;;;2.40;99.90;;;;;;5062050;28;20439;-53
2020/12/29 06:22:09;;;;;;;11.87;9.93;;;2.50;99.90;;;;;;5063292;28;20436;-49
2020/12/29 06:24:37;;;;;;;12.60;10.13;;;2.50;99.90;;;;;;5074696;28;20409;-55
2020/12/29 06:27:05;;;;;;;13.43;10.97;;;2.40;99.90;;;;;;5075596;28;20420;-55
2020/12/29 06:29:44;;;;;;;12.13;9.70;;;2.40;99.90;;;;;;5076965;28;20428;-50
2020/12/29 06:32:19;;;;;;;14.30;9.40;;;2.40;99.90;;;;;;5075715;28;20460;-57
2020/12/29 06:34:45;;;;;;;12.70;9.90;;;2.40;99.90;;;;;;5062019;28;20429;-55
2020/12/29 06:37:46;;;;;;;12.10;9.97;;;2.40;99.90;;;;;;5056771;28;20394;-54
2020/12/29 06:40:13;;;;;;;13.20;9.83;;;2.40;99.90;;;;;;5071310;28;20427;-52
2020/12/29 06:42:40;;;;;;;11.67;9.47;;;2.40;99.90;;;;;;5075395;28;20413;-57
2020/12/29 06:45:08;;;;;;;12.90;10.23;;;2.30;99.90;;;;;;5062700;28;20548;-52
2020/12/29 06:47:37;;;;;;;12.97;10.67;;;2.30;99.90;;;;;;5054859;28;20968;-52
2020/12/29 06:50:29;;;;;;;13.57;11.07;;;2.20;99.90;;;;;;5055393;28;20437;-55
2020/12/29 06:53:03;;;;;;;12.80;10.70;;;2.40;99.90;;;;;;5066320;28;20574;-57
2020/12/29 06:55:39;;;;;;;13.17;10.57;;;2.40;99.90;;;;;;5071120;28;20464;-50
2020/12/29 06:58:06;;;;;;;14.27;11.73;;;2.50;99.90;;;;;;5072928;28;20932;-51
2020/12/29 07:00:34;;;;;;;14.90;12.00;;;2.40;99.90;;;;;;5058289;28;20425;-55
2020/12/29 07:03:00;;;;;;;14.73;12.23;;;2.30;99.90;;;;;;5053602;28;20412;-56
2020/12/29 07:05:27;;;;;;;13.57;11.23;;;2.20;99.90;;;;;;5066215;28;20425;-54
2020/12/29 07:07:59;;;;;;;14.17;11.03;;;2.20;99.90;;;;;;5074185;28;20209;-55
2020/12/29 07:10:38;;;;;;;12.97;10.80;;;2.40;99.90;;;;;;5062665;28;20421;-55
2020/12/29 07:13:13;;;;;;;13.30;10.73;;;2.50;99.90;;;;;;5071471;28;20875;-55
2020/12/29 07:15:51;;;;;;;13.20;11.33;;;2.70;99.90;;;;;;5061567;28;20421;-49
2020/12/29 07:18:28;;;;;;;13.57;11.73;;;2.80;99.90;;;;;;5060711;28;20801;-57
2020/12/29 07:20:55;;;;;;;14.10;11.57;;;2.90;99.90;;;;;;5069832;28;20182;-56
2020/12/29 07:23:24;;;;;;;13.97;11.47;;;3.10;99.90;;;;;;5068905;28;20444;-49
2020/12/29 07:25:51;;;;;;;12.43;10.87;;;3.10;99.90;;;;;;5062264;28;20461;-54
2020/12/29 07:28:24;;;;;;;14.13;12.03;;;3.10;99.90;;;;;;5074683;28;20424;-53
2020/12/29 07:30:51;;;;;;;14.70;12.43;;;3.20;99.90;;;;;;5075029;28;20423;-48
2020/12/29 07:33:22;;;;;;;13.93;11.50;;;3.20;99.90;;;;;;5076913;28;20409;-51
2020/12/29 07:35:48;;;;;;;12.13;10.17;;;3.20;99.90;;;;;;5070458;28;20413;-49
2020/12/29 07:38:21;;;;;;;13.30;10.70;;;3.30;99.90;;;;;;5056853;28;20917;-50
2020/12/29 07:40:47;;;;;;;12.70;10.93;;;3.20;99.90;;;;;;5055963;28;20417;-49
2020/12/29 07:43:13;;;;;;;13.10;10.97;;;3.20;99.90;;;;;;5053451;28;20430;-49
2020/12/29 07:45:38;;;;;;;11.53;9.67;;;3.30;99.90;;;;;;5054007;28;20171;-53
2020/12/29 07:48:05;;;;;;;13.00;10.57;;;3.30;99.90;;;;;;5054300;28;20191;-48
2020/12/29 07:50:32;;;;;;;13.53;11.10;;;3.40;99.90;;;;;;5069505;28;20182;-47
2020/12/29 07:53:06;;;;;;;13.10;11.30;;;3.40;99.90;;;;;;5074382;28;20944;-49
2020/12/29 07:55:32;;;;;;;13.03;10.30;;;3.40;99.90;;;;;;5071565;28;20464;-50
2020/12/29 07:58:05;;;;;;;13.90;11.47;;;3.40;99.90;;;;;;5074389;28;20959;-47
2020/12/29 08:00:35;;;;;;;11.77;9.83;;;3.40;99.90;;;;;;5072736;28;20277;-52
2020/12/29 08:03:01;;;;;;;12.63;10.33;;;3.40;99.90;;;;;;5063028;28;20182;-49
2020/12/29 08:05:28;;;;;;;11.20;9.63;;;3.50;99.90;;;;;;5075813;28;20259;-48
2020/12/29 08:07:55;;;;;;;10.83;9.27;;;3.60;99.90;;;;;;5075628;28;20198;-53
2020/12/29 08:10:22;;;;;;;10.70;9.10;;;3.80;99.90;;;;;;5071399;28;20455;-54
2020/12/29 08:12:56;;;;;;;10.70;8.60;;;4.10;99.90;;;;;;5072437;28;20214;-52
2020/12/29 08:15:35;;;;;;;8.87;7.60;;;4.50;99.90;;;;;;5063654;28;20186;-51
2020/12/29 08:18:07;;;;;;;8.80;7.80;;;5.20;99.90;;;;;;5070897;28;20186;-56
2020/12/29 08:20:55;;;;;;;8.40;7.50;;;6.30;99.90;;;;;;5074654;28;20553;-51
2020/12/29 08:23:26;;;;;;;9.13;8.03;;;8.20;99.90;;;;;;5074789;28;20656;-51
2020/12/29 08:25:54;;;;;;;8.00;7.20;;;10.10;99.90;;;;;;5073557;28;20182;-51
2020/12/29 08:28:26;;;;;;;7.57;6.77;;;12.00;99.90;;;;;;5074479;28;20202;-51
2020/12/29 08:30:52;;;;;;;6.73;6.10;;;13.50;99.90;;;;;;5075579;28;20544;-56
2020/12/29 08:33:23;;;;;;;7.23;6.43;;;13.90;98.00;;;;;;5075788;28;20684;-53
2020/12/29 08:35:51;;;;;;;8.07;7.20;;;13.60;97.10;;;;;;5070652;28;20215;-54
2020/12/29 08:38:38;;;;;;;8.30;7.47;;;12.90;96.60;;;;;;5075213;28;20202;-53
2020/12/29 08:41:13;;;;;;;16.13;12.23;;;11.70;96.90;;;;;;5073470;28;20174;-51
2020/12/29 08:43:44;;;;;;;17.90;14.20;;;9.50;99.70;;;;;;5072257;28;20552;-50
2020/12/29 08:46:12;;;;;;;14.17;11.13;;;7.40;99.90;;;;;;5076486;28;20194;-47
2020/12/29 08:48:40;;;;;;;15.00;11.30;;;6.40;99.90;;;;;;5073902;28;20209;-56
2020/12/29 08:51:20;;;;;;;9.83;8.70;;;6.10;99.90;;;;;;5071240;28;20720;-54
2020/12/29 08:53:47;;;;;;;9.83;8.80;;;6.50;99.90;;;;;;5073028;28;20178;-51
2020/12/29 08:56:27;;;;;;;9.30;8.27;;;7.10;99.90;;;;;;5074723;28;20607;-57
2020/12/29 08:58:53;;;;;;;8.57;7.20;;;7.70;99.90;;;;;;5076131;28;20202;-55
2020/12/29 09:01:35;;;;;;;8.17;7.23;;;8.20;99.90;;;;;;5072720;28;20194;-51
2020/12/29 09:04:24;;;;;;;7.07;6.37;;;8.80;99.90;;;;;;5075251;28;20220;-58
2020/12/29 09:06:56;;;;;;;7.47;6.67;;;9.90;99.90;;;;;;5074442;28;20175;-56
2020/12/29 09:09:21;;;;;;;6.80;6.07;;;12.20;99.90;;;;;;5070888;28;20225;-55
2020/12/29 09:11:47;;;;;;;6.80;6.20;;;14.50;97.50;;;;;;5070913;28;20562;-53
2020/12/29 09:14:13;;;;;;;6.80;6.20;;;17.00;94.00;;;;;;5072436;28;20182;-55
2020/12/29 09:16:38;;;;;;;6.07;5.47;;;18.60;90.20;;;;;;5072117;28;20251;-54
2020/12/29 09:19:13;;;;;;;8.47;7.67;;;20.10;84.50;;;;;;5068278;28;20214;-60
2020/12/29 09:21:39;;;;;;;5.70;5.20;;;21.80;78.60;;;;;;5073301;28;20238;-52
2020/12/29 09:24:05;;;;;;;5.55;5.05;;;23.50;73.00;;;;;;5071984;28;20198;-58
2020/12/29 09:26:30;;;;;;;5.35;4.95;;;24.60;65.80;;;;;;5073270;28;20253;-51
2020/12/29 09:28:57;;;;;;;4.95;4.55;;;25.70;62.80;;;;;;5070003;28;20254;-57
2020/12/29 09:31:27;;;;;;;4.30;4.00;;;26.90;59.50;;;;;;5071544;28;20210;-61
2020/12/29 09:33:53;;;;;;;5.32;4.82;;;28.50;55.60;;;;;;5067156;28;20519;-59
2020/12/29 09:36:26;;;;;;;3.97;3.65;;;30.00;52.70;;;;;;5069754;28;20711;-59
2020/12/29 09:38:53;;;;;;;4.00;3.70;;;31.50;49.20;;;;;;5050992;28;20198;-57
2020/12/29 09:41:20;;;;;;;3.90;3.60;;;32.80;46.40;;;;;;5060729;28;20194;-59
2020/12/29 09:43:47;;;;;;;3.72;3.42;;;33.60;44.00;;;;;;5071526;28;20183;-57
2020/12/29 09:46:12;;;;;;;4.65;4.25;;;34.30;42.10;;;;;;5071789;28;20175;-59
2020/12/29 09:48:39;;;;;;;3.88;3.58;;;35.10;40.80;;;;;;5072740;28;20205;-59
2020/12/29 09:51:05;;;;;;;3.35;3.08;;;35.80;39.30;;;;;;5069330;28;20306;-58
2020/12/29 09:53:30;;;;;;;3.53;3.28;;;36.40;38.50;;;;;;5072005;28;20266;-55
2020/12/29 09:55:56;;;;;;;3.38;3.17;;;37.00;36.80;;;;;;5076882;28;20220;-56
2020/12/29 09:58:23;;;;;;;3.42;3.20;;;37.50;36.00;;;;;;5075361;28;20228;-58
2020/12/29 10:00:50;;;;;;;5.32;4.93;;;38.00;34.60;;;;;;5077441;28;20662;-57
2020/12/29 10:03:16;;;;;;;7.43;6.72;;;38.40;33.30;;;;;;5075546;28;20245;-58
2020/12/29 10:05:43;;;;;;;7.30;6.60;;;38.70;33.40;;;;;;5074665;28;20206;-59
2020/12/29 10:08:09;;;;;;;3.78;3.47;;;38.50;32.10;;;;;;5076213;28;20224;-57
2020/12/29 10:10:34;;;;;;;4.03;3.72;;;38.60;32.10;;;;;;5076197;28;20170;-57
2020/12/29 10:13:00;;;;;;;3.53;3.22;;;38.90;32.40;;;;;;5076214;28;20204;-57
2020/12/29 10:15:26;;;;;;;6.35;5.85;;;39.30;31.60;;;;;;5076483;28;20193;-58
2020/12/29 10:17:51;;;;;;;3.50;3.20;;;39.70;31.50;;;;;;5076967;28;20206;-55
2020/12/29 10:20:17;;;;;;;10.18;9.38;;;40.10;31.60;;;;;;5064817;28;20248;-58
2020/12/29 10:22:42;;;;;;;4.22;3.92;;;40.50;30.70;;;;;;5073876;28;20205;-61
2020/12/29 10:25:14;;;;;;;3.78;3.47;;;40.90;30.50;;;;;;5070770;28;20178;-60
2020/12/29 10:27:42;;;;;;;3.60;3.30;;;40.50;29.20;;;;;;5055988;28;20224;-56
2020/12/29 10:30:08;;;;;;;3.20;3.00;;;39.40;29.40;;;;;;5074678;28;20185;-58
2020/12/29 10:32:33;;;;;;;3.33;3.05;;;38.30;30.50;;;;;;5075913;28;20186;-59
2020/12/29 10:34:59;;;;;;;3.65;3.35;;;38.00;30.80;;;;;;5074200;28;20186;-55
2020/12/29 10:37:24;;;;;;;4.00;3.70;;;37.00;30.50;;;;;;5073418;28;20166;-58
2020/12/29 10:39:50;;;;;;;3.33;3.05;;;35.90;31.30;;;;;;5067610;28;20194;-55
2020/12/29 10:42:16;;;;;;;6.03;5.43;;;35.20;32.20;;;;;;5071513;28;20589;-55
2020/12/29 10:44:41;;;;;;;3.63;3.33;;;35.60;32.50;;;;;;5071351;28;20634;-57
2020/12/29 10:47:07;;;;;;;3.88;3.58;;;36.40;32.20;;;;;;5074701;28;20189;-58
2020/12/29 10:49:32;;;;;;;3.50;3.20;;;37.00;31.30;;;;;;5071114;28;20709;-50
2020/12/29 10:51:58;;;;;;;3.13;2.83;;;37.30;30.70;;;;;;5070519;28;20285;-53
2020/12/29 10:54:24;;;;;;;4.63;4.22;;;37.40;31.30;;;;;;5072896;28;20217;-57
2020/12/29 10:56:49;;;;;;;5.53;5.03;;;37.50;30.00;;;;;;5077529;28;20220;-56
2020/12/29 10:59:15;;;;;;;9.60;8.48;;;37.10;30.70;;;;;;5071873;28;20241;-56
2020/12/29 11:01:40;;;;;;;14.52;12.30;;;37.20;31.00;;;;;;5074541;28;20216;-57
2020/12/29 11:04:06;;;;;;;5.15;4.65;;;36.70;30.80;;;;;;5073604;28;20245;-57
2020/12/29 11:06:31;;;;;;;5.50;5.00;;;36.00;31.20;;;;;;5075734;28;20701;-53
2020/12/29 11:08:57;;;;;;;5.43;4.93;;;35.40;32.20;;;;;;5073733;28;20205;-60
2020/12/29 11:11:22;;;;;;;4.72;4.32;;;35.50;32.40;;;;;;5076617;28;20201;-60
2020/12/29 11:13:48;;;;;;;6.22;5.63;;;36.00;32.20;;;;;;5075914;28;20219;-60
2020/12/29 11:16:19;;;;;;;4.05;3.75;;;35.80;31.60;;;;;;5078321;28;20257;-59
2020/12/29 11:18:46;;;;;;;4.00;3.60;;;34.80;31.90;;;;;;5072220;28;20732;-58
2020/12/29 11:21:14;;;;;;;3.85;3.55;;;33.50;33.40;;;;;;5073783;28;20210;-56
2020/12/29 11:23:39;;;;;;;4.43;4.03;;;32.30;34.00;;;;;;5074171;28;20327;-55
2020/12/29 11:26:05;;;;;;;4.20;3.80;;;31.40;34.80;;;;;;5075135;28;20197;-57
2020/12/29 11:28:31;;;;;;;8.05;7.25;;;30.70;35.60;;;;;;5073382;28;20273;-58
2020/12/29 11:30:56;;;;;;;5.70;5.10;;;29.60;35.80;;;;;;5073089;28;20174;-58
2020/12/29 11:33:22;;;;;;;4.53;4.07;;;27.80;37.80;;;;;;5074771;28;20240;-59
2020/12/29 11:35:48;;;;;;;4.90;4.45;;;26.40;39.80;;;;;;5074744;28;20266;-51
2020/12/29 11:38:15;;;;;;;5.38;4.88;;;25.30;41.30;;;;;;5074544;28;20202;-58
2020/12/29 11:40:41;;;;;;;4.65;4.25;;;24.40;42.60;;;;;;5072380;28;20547;-55
2020/12/29 11:43:06;;;;;;;4.75;4.35;;;24.00;44.10;;;;;;5075843;28;20674;-59
2020/12/29 11:45:32;;;;;;;5.70;5.20;;;24.50;44.50;;;;;;5075401;28;20178;-58
2020/12/29 11:47:57;;;;;;;5.78;4.85;;;25.10;43.80;;;;;;5078055;28;20618;-56
2020/12/29 11:50:23;;;;;;;4.70;4.30;;;25.90;43.30;;;;;;5071675;28;20651;-58
2020/12/29 11:52:48;;;;;;;5.53;5.03;;;27.00;42.40;;;;;;5073343;28;20535;-57
2020/12/29 11:55:14;;;;;;;5.40;4.70;;;27.30;40.60;;;;;;5078714;28;20199;-60
2020/12/29 11:57:39;;;;;;;5.70;5.10;;;27.20;41.00;;;;;;5078988;28;20202;-58
2020/12/29 12:00:07;;;;;;;5.55;5.05;;;26.90;41.30;;;;;;5072556;28;20538;-58
2020/12/29 12:02:32;;;;;;;6.47;5.88;;;26.60;41.70;;;;;;5075186;28;20195;-56
2020/12/29 12:04:58;;;;;;;6.03;5.53;;;26.10;41.60;;;;;;5076292;28;20182;-58
2020/12/29 12:07:23;;;;;;;11.05;9.60;;;25.10;42.30;;;;;;5077755;28;20194;-56
2020/12/29 12:09:49;;;;;;;10.10;9.10;;;24.10;44.20;;;;;;5075803;28;20194;-59
2020/12/29 12:12:14;;;;;;;12.07;9.60;;;24.00;44.80;;;;;;5075665;28;20222;-60
2020/12/29 12:14:40;;;;;;;11.07;9.57;;;24.20;45.70;;;;;;5074301;28;20537;-53
2020/12/29 12:17:06;;;;;;;10.27;9.18;;;24.40;44.70;;;;;;5074936;28;20190;-59
2020/12/29 12:19:31;;;;;;;8.00;7.20;;;24.20;44.30;;;;;;5073729;28;20721;-57
2020/12/29 12:21:57;;;;;;;8.43;6.78;;;23.30;45.80;;;;;;5073040;28;20202;-57
2020/12/29 12:24:22;;;;;;;5.75;5.22;;;22.60;45.70;;;;;;5075471;28;20179;-58
2020/12/29 12:26:51;;;;;;;5.47;4.78;;;21.40;46.40;;;;;;5076396;28;20188;-56
2020/12/29 12:29:16;;;;;;;7.47;6.70;;;20.70;48.40;;;;;;5073422;28;20215;-59
2020/12/29 12:31:43;;;;;;;7.47;6.53;;;20.20;49.20;;;;;;5074411;28;20187;-59
2020/12/29 12:34:08;;;;;;;13.40;12.20;;;19.50;50.00;;;;;;5074973;28;20275;-55
2020/12/29 12:36:34;;;;;;;11.13;10.03;;;19.00;51.40;;;;;;5073962;28;20202;-56
2020/12/29 12:38:59;;;;;;;6.53;5.93;;;18.30;52.70;;;;;;5072845;28;20210;-59
2020/12/29 12:41:25;;;;;;;6.10;5.50;;;18.00;53.50;;;;;;5076727;28;20214;-58
2020/12/29 12:43:51;;;;;;;11.57;8.50;;;17.50;53.70;;;;;;5075390;28;20199;-60